Time;durP1;ratioP1;P1;durP2;ratioP2;P2;SDS_P1;SDS_P2;PMS_P1;PMS_P2;Temp;Humidity;BMP_temperature;BMP_pressure;BME280_temperature;BME280_humidity;BME280_pressure;Samples;Min_cycle;Max_cycle;Signal;HPM_P1;HPM_P2
2019/04/18 00:00:20;;;;;;;8;5.6;;;;;;;6.29;70.36523;942.7088;;;;
2019/04/18 00:02:48;;;;;;;6.9;5.2;;;;;;;6.36;69.7666;942.8552;;;;
2019/04/18 00:06:12;;;;;;;8.8;5.6;;;;;;;6.28;70.12695;942.7514;;;;
2019/04/18 00:07:39;;;;;;;7.5;5.3;;;;;;;6.54;69.09473;942.7837;;;;
2019/04/18 00:10:10;;;;;;;6.9;5;;;;;;;6.36;68.96387;942.7753;;;;
2019/04/18 00:12:55;;;;;;;11.1;6;;;;;;;6.37;69.49707;942.7281;;;;
2019/04/18 00:15:22;;;;;;;6.3;5.4;;;;;;;6.36;69.29004;942.7586;;;;
2019/04/18 00:17:55;;;;;;;7.5;5.4;;;;;;;6.51;68.94141;942.7059;;;;
2019/04/18 00:20:21;;;;;;;6.9;5;;;;;;;6.29;69.41602;942.7169;;;;
2019/04/18 00:22:53;;;;;;;7.3;5;;;;;;;6.2;69.81934;942.6644;;;;
2019/04/18 00:25:22;;;;;;;9.8;5.8;;;;;;;6.16;70.16406;942.6711;;;;
2019/04/18 00:27:48;;;;;;;8.5;5.7;;;;;;;5.89;71.02344;942.6306;;;;
2019/04/18 00:30:19;;;;;;;11.3;5.8;;;;;;;5.79;71.54883;942.6585;;;;
2019/04/18 00:32:44;;;;;;;7.1;5.7;;;;;;;5.69;71.88184;942.6229;;;;
2019/04/18 00:35:12;;;;;;;8.3;5.9;;;;;;;5.87;71.3252;942.5519;;;;
2019/04/18 00:37:51;;;;;;;7.9;5.5;;;;;;;5.62;71.99414;942.5311;;;;
2019/04/18 00:40:16;;;;;;;8.6;5.7;;;;;;;5.52;72.82227;942.5588;;;;
2019/04/18 00:42:41;;;;;;;7;5.6;;;;;;;5.59;72.51953;942.5369;;;;
2019/04/18 00:45:08;;;;;;;9.6;5.8;;;;;;;5.57;72.97754;942.4966;;;;
2019/04/18 00:47:41;;;;;;;7.6;5.7;;;;;;;5.56;73.03418;942.5137;;;;
2019/04/18 00:50:15;;;;;;;10.2;5.9;;;;;;;5.57;72.94434;942.5046;;;;
2019/04/18 00:52:40;;;;;;;6.8;5.7;;;;;;;5.56;72.87598;942.4758;;;;
2019/04/18 00:55:21;;;;;;;8.7;5.6;;;;;;;5.85;72.08887;942.4902;;;;
2019/04/18 00:57:59;;;;;;;8.6;5.7;;;;;;;5.88;71.98047;942.5134;;;;
2019/04/18 01:00:29;;;;;;;7;5;;;;;;;5.79;71.69531;942.5402;;;;
2019/04/18 01:03:05;;;;;;;7.5;5.3;;;;;;;5.52;72.62988;942.4704;;;;
2019/04/18 01:05:33;;;;;;;8.7;5.4;;;;;;;5.51;72.94629;942.4796;;;;
2019/04/18 01:08:00;;;;;;;7.7;5.6;;;;;;;5.91;72.21387;942.4817;;;;
2019/04/18 01:10:26;;;;;;;7.6;5.7;;;;;;;6.07;71.45996;942.4706;;;;
2019/04/18 01:12:51;;;;;;;7.3;5.4;;;;;;;6;70.08105;942.4333;;;;
2019/04/18 01:15:24;;;;;;;7.8;4.9;;;;;;;6.29;69.06348;942.4011;;;;
2019/04/18 01:17:49;;;;;;;7.6;5.6;;;;;;;6.27;69.46973;942.3895;;;;
2019/04/18 01:20:16;;;;;;;8.2;5.5;;;;;;;6.27;69.33398;942.3728;;;;
2019/04/18 01:22:47;;;;;;;7;5.6;;;;;;;6.37;68.9668;942.4411;;;;
2019/04/18 01:25:22;;;;;;;21.1;7.2;;;;;;;5.82;71.38379;942.382;;;;
2019/04/18 01:27:47;;;;;;;8;5.9;;;;;;;5.6;72.46484;942.3296;;;;
2019/04/18 01:30:16;;;;;;;12.5;6.8;;;;;;;5.68;72.44531;942.3625;;;;
2019/04/18 01:32:53;;;;;;;8.4;5.9;;;;;;;5.6;72.63281;942.2164;;;;
2019/04/18 01:35:23;;;;;;;10.6;6.1;;;;;;;5.47;73.33301;942.3178;;;;
2019/04/18 01:37:48;;;;;;;8.8;6.2;;;;;;;5.53;72.79102;942.2672;;;;
2019/04/18 01:40:22;;;;;;;10.1;6.2;;;;;;;5.3;73.81152;942.2997;;;;
2019/04/18 01:45:22;;;;;;;8.4;6.1;;;;;;;5.55;72.56836;942.3206;;;;
2019/04/18 01:47:45;;;;;;;7.2;5.8;;;;;;;5.56;72.1416;942.3293;;;;
2019/04/18 01:50:16;;;;;;;8.2;6.2;;;;;;;5.8;71.53711;942.3247;;;;
2019/04/18 01:52:46;;;;;;;7.7;5.9;;;;;;;5.59;71.9668;942.1997;;;;
2019/04/18 01:55:19;;;;;;;9.3;5.6;;;;;;;5.5;72.2207;942.2864;;;;
2019/04/18 01:57:45;;;;;;;9.2;5.7;;;;;;;5.67;71.75293;942.2453;;;;
2019/04/18 02:00:27;;;;;;;7.9;5.8;;;;;;;5.43;72.49219;942.2028;;;;
2019/04/18 02:02:58;;;;;;;9;5.5;;;;;;;5.14;73.55957;942.1289;;;;
2019/04/18 02:05:23;;;;;;;19.1;6.2;;;;;;;5.33;73.15234;942.2051;;;;
2019/04/18 02:07:48;;;;;;;8.6;6;;;;;;;5.09;74.13672;942.183;;;;
2019/04/18 02:10:14;;;;;;;9.1;5.9;;;;;;;5.38;73.69141;942.2561;;;;
2019/04/18 02:12:42;;;;;;;10;6.2;;;;;;;5.32;73.26367;942.2517;;;;
2019/04/18 02:15:19;;;;;;;12.5;5.9;;;;;;;5.21;73.80762;942.3519;;;;
2019/04/18 02:17:44;;;;;;;8.9;6.2;;;;;;;5.15;74.04785;942.3345;;;;
2019/04/18 02:20:12;;;;;;;7.6;5.6;;;;;;;5.11;74.34277;942.3542;;;;
2019/04/18 02:22:37;;;;;;;11.6;6.7;;;;;;;5.18;74.30957;942.438;;;;
2019/04/18 02:25:15;;;;;;;7.2;6;;;;;;;5.03;74.84863;942.372;;;;
2019/04/18 02:27:45;;;;;;;11.2;6;;;;;;;5.27;73.97559;942.3058;;;;
2019/04/18 02:30:21;;;;;;;9.7;5.8;;;;;;;5.15;74.44238;942.423;;;;
2019/04/18 02:32:52;;;;;;;8.7;5.9;;;;;;;4.97;75.08496;942.3803;;;;
2019/04/18 02:35:17;;;;;;;8.2;6.4;;;;;;;5;74.91016;942.349;;;;
2019/04/18 02:37:51;;;;;;;9.5;7.1;;;;;;;4.87;75.29297;942.3531;;;;
2019/04/18 02:40:16;;;;;;;15.2;7.9;;;;;;;4.85;75.33496;942.4052;;;;
2019/04/18 02:42:46;;;;;;;12.7;7.4;;;;;;;4.92;75.17871;942.3667;;;;
2019/04/18 02:45:17;;;;;;;12;7.4;;;;;;;4.83;75.58984;942.4106;;;;
2019/04/18 02:48:04;;;;;;;10.7;6.4;;;;;;;4.72;75.97559;942.3755;;;;
2019/04/18 02:50:32;;;;;;;10.7;6.5;;;;;;;5.08;74.22461;942.3901;;;;
2019/04/18 02:53:09;;;;;;;8.5;6;;;;;;;5.09;74.0459;942.4189;;;;
2019/04/18 02:55:37;;;;;;;8.3;5.6;;;;;;;5.08;74.17969;942.4068;;;;
2019/04/18 02:58:18;;;;;;;9.7;5.9;;;;;;;4.85;75.44824;942.4052;;;;
2019/04/18 03:00:55;;;;;;;11.6;6.2;;;;;;;4.78;75.72656;942.3381;;;;
2019/04/18 03:03:15;;;;;;;8.9;6.3;;;;;;;4.94;75.26074;942.4031;;;;
2019/04/18 03:05:47;;;;;;;10.8;6.6;;;;;;;4.72;76.24805;942.3331;;;;
2019/04/18 03:08:17;;;;;;;8.4;6.1;;;;;;;4.78;76.09766;942.3295;;;;
2019/04/18 03:10:42;;;;;;;13.6;6.3;;;;;;;4.66;76.68652;942.3457;;;;
2019/04/18 03:13:07;;;;;;;15.4;8.2;;;;;;;4.58;76.98633;942.3256;;;;
2019/04/18 03:15:37;;;;;;;12;8.1;;;;;;;4.63;76.70313;942.4022;;;;
2019/04/18 03:18:18;;;;;;;10.5;7.1;;;;;;;4.59;76.67578;942.2782;;;;
2019/04/18 03:20:55;;;;;;;10.7;6.8;;;;;;;4.53;76.83301;942.2949;;;;
2019/04/18 03:23:33;;;;;;;9.4;6.7;;;;;;;4.5;77.19629;942.3897;;;;
2019/04/18 03:26:00;;;;;;;13.2;7.2;;;;;;;4.62;76.69043;942.3401;;;;
2019/04/18 03:28:26;;;;;;;11.6;6.7;;;;;;;4.48;77.2832;942.3406;;;;
2019/04/18 03:30:52;;;;;;;9;7;;;;;;;4.47;77.33789;942.2573;;;;
2019/04/18 03:33:25;;;;;;;10.7;6.2;;;;;;;4.4;77.5166;942.3579;;;;
2019/04/18 03:35:51;;;;;;;8.4;6.7;;;;;;;4.4;77.51758;942.3411;;;;
2019/04/18 03:38:17;;;;;;;12.6;6.4;;;;;;;4.64;76.73828;942.3306;;;;
2019/04/18 03:40:50;;;;;;;7.6;5;;;;;;;4.99;73.0127;942.3076;;;;
2019/04/18 03:43:15;;;;;;;8.6;5.6;;;;;;;5.23;73.51855;942.2498;;;;
2019/04/18 03:46:07;;;;;;;9.1;5.8;;;;;;;5.18;73.27246;942.337;;;;
2019/04/18 03:48:17;;;;;;;7.9;5.9;;;;;;;4.82;75.04688;942.2935;;;;
2019/04/18 03:50:49;;;;;;;8.5;6.3;;;;;;;4.75;75.0918;942.2766;;;;
2019/04/18 03:53:12;;;;;;;6.8;5.2;;;;;;;5.56;69.5459;942.1518;;;;
2019/04/18 03:55:49;;;;;;;8.7;5.7;;;;;;;5.94;69.15527;942.2145;;;;
2019/04/18 03:58:33;;;;;;;11;6.3;;;;;;;5.56;71.35156;942.2403;;;;
2019/04/18 04:03:04;;;;;;;10.3;6.5;;;;;;;5.16;73.5625;942.2249;;;;
2019/04/18 04:05:31;;;;;;;11.4;6.6;;;;;;;4.98;74.35449;942.3287;;;;
2019/04/18 04:07:57;;;;;;;13.8;7.2;;;;;;;5.03;73.96875;942.3978;;;;
2019/04/18 04:10:25;;;;;;;11.9;7.6;;;;;;;5.08;73.50391;942.3816;;;;
2019/04/18 04:13:03;;;;;;;19.9;8;;;;;;;4.98;74.34277;942.3293;;;;
2019/04/18 04:15:30;;;;;;;24;8.1;;;;;;;4.95;74.25977;942.3688;;;;
2019/04/18 04:25:21;;;;;;;11.6;7.5;;;;;;;4.63;75.99219;942.4406;;;;
2019/04/18 04:28:09;;;;;;;16;8.8;;;;;;;4.53;76.68555;942.5391;;;;
2019/04/18 04:30:50;;;;;;;14.3;7.4;;;;;;;4.35;77.44238;942.4617;;;;
2019/04/18 04:33:17;;;;;;;25.4;7.8;;;;;;;4.43;77.32031;942.5541;;;;
2019/04/18 04:35:43;;;;;;;11.6;6.8;;;;;;;4.48;77.12598;942.5339;;;;
2019/04/18 04:38:15;;;;;;;13.5;7.7;;;;;;;4.74;75.97852;942.5426;;;;
2019/04/18 04:40:53;;;;;;;16.4;9.2;;;;;;;4.73;76.16895;942.5391;;;;
2019/04/18 04:43:18;;;;;;;15.4;9.5;;;;;;;4.78;75.53516;942.5694;;;;
2019/04/18 04:45:48;;;;;;;12.4;7.6;;;;;;;4.67;75.97852;942.5976;;;;
2019/04/18 04:48:29;;;;;;;9.7;6.9;;;;;;;4.49;77.00488;942.6046;;;;
2019/04/18 04:51:24;;;;;;;10.1;6.6;;;;;;;4.78;75.91895;942.6153;;;;
2019/04/18 04:53:51;;;;;;;13.9;6.6;;;;;;;4.52;76.93164;942.6278;;;;
2019/04/18 04:56:38;;;;;;;11.9;6.1;;;;;;;4.71;76.45898;942.6203;;;;
2019/04/18 04:59:03;;;;;;;11.2;6.9;;;;;;;4.69;76.31055;942.7011;;;;
2019/04/18 05:01:34;;;;;;;6.8;5.9;;;;;;;4.83;75.92773;942.7894;;;;
2019/04/18 05:04:08;;;;;;;10.7;7.1;;;;;;;5.25;75.57324;942.7707;;;;
2019/04/18 05:06:54;;;;;;;22.4;8.4;;;;;;;5.1;75.01855;942.7968;;;;
2019/04/18 05:09:19;;;;;;;11.5;7.1;;;;;;;5.12;74.72852;942.825;;;;
2019/04/18 05:11:47;;;;;;;14.2;7;;;;;;;5.47;73.27734;942.7601;;;;
2019/04/18 05:14:18;;;;;;;14;7.2;;;;;;;5.47;73.29004;942.8061;;;;
2019/04/18 05:16:53;;;;;;;9.7;6.5;;;;;;;5.59;72.94922;942.8402;;;;
2019/04/18 05:19:20;;;;;;;27.1;13.3;;;;;;;5.46;73.35645;942.8405;;;;
2019/04/18 05:21:55;;;;;;;27.1;15.5;;;;;;;5.55;73.06543;942.8262;;;;
2019/04/18 05:24:20;;;;;;;36.6;18.3;;;;;;;5.64;72.49316;942.8116;;;;
2019/04/18 05:27:04;;;;;;;43.7;24.3;;;;;;;5.47;73.44629;942.7389;;;;
2019/04/18 05:29:29;;;;;;;40.2;22;;;;;;;5.54;72.98438;942.8267;;;;
2019/04/18 05:31:58;;;;;;;41.3;21.6;;;;;;;5.48;73.62988;942.8814;;;;
2019/04/18 05:34:23;;;;;;;35.7;19.1;;;;;;;6;72.00098;942.8678;;;;
2019/04/18 05:36:49;;;;;;;22;13.1;;;;;;;7.33;67.25098;942.8405;;;;
2019/04/18 05:39:17;;;;;;;27.9;13.5;;;;;;;8.99;61.18457;942.8658;;;;
2019/04/18 05:41:39;;;;;;;25.7;11.2;;;;;;;10.17;57.13086;942.8145;;;;
2019/04/18 05:44:04;;;;;;;16.9;7.7;;;;;;;10.95;53.81836;942.8751;;;;
2019/04/18 05:46:47;;;;;;;16.9;7.1;;;;;;;11.18;53.16992;942.8469;;;;
2019/04/18 05:49:04;;;;;;;15.1;6.6;;;;;;;11.7;51.52832;942.877;;;;
2019/04/18 05:51:30;;;;;;;14.7;6;;;;;;;12.05;50.06934;942.8788;;;;
2019/04/18 05:54:11;;;;;;;24.9;6.4;;;;;;;12.36;49.42871;942.8591;;;;
2019/04/18 05:56:28;;;;;;;14;5.4;;;;;;;13.02;48.34473;942.9324;;;;
2019/04/18 05:59:21;;;;;;;8.1;4.9;;;;;;;13.68;45.77148;942.92;;;;
2019/04/18 06:02:35;;;;;;;11.1;5;;;;;;;13.81;45.84277;942.8006;;;;
2019/04/18 06:09:07;;;;;;;9.7;4;;;;;;;14.88;42.32422;942.8499;;;;
2019/04/18 06:11:44;;;;;;;12.2;4.1;;;;;;;14.85;42.95508;942.8491;;;;
2019/04/18 06:14:05;;;;;;;10.9;4.3;;;;;;;15.05;42.37402;942.8069;;;;
2019/04/18 06:20:01;;;;;;;11.3;4.4;;;;;;;15.49;41.13574;942.8382;;;;
2019/04/18 06:22:33;;;;;;;17.2;4.8;;;;;;;15.81;39.24707;942.8419;;;;
2019/04/18 06:25:07;;;;;;;15.2;4.5;;;;;;;16.13;38.01563;942.8589;;;;
2019/04/18 06:27:42;;;;;;;15.2;4.5;;;;;;;17.17;37.02734;942.8345;;;;
2019/04/18 06:35:03;;;;;;;10.4;3.6;;;;;;;17.85;33.9502;942.8519;;;;
2019/04/18 06:37:30;;;;;;;7.7;4.2;;;;;;;18.59;33.79688;942.921;;;;
2019/04/18 06:39:56;;;;;;;9.6;3.2;;;;;;;18.22;33.16406;942.8438;;;;
2019/04/18 06:42:23;;;;;;;8.5;3.1;;;;;;;18.14;35.50586;942.7754;;;;
2019/04/18 06:44:49;;;;;;;7.9;3.2;;;;;;;18.88;31.07324;942.7658;;;;
2019/04/18 06:47:37;;;;;;;6.1;3.2;;;;;;;19.55;29.63965;942.7672;;;;
2019/04/18 06:50:15;;;;;;;8.4;3;;;;;;;19.59;30.86621;942.7874;;;;
2019/04/18 06:52:49;;;;;;;15.8;3.7;;;;;;;19.37;30.81543;942.7415;;;;
2019/04/18 06:55:21;;;;;;;7.5;2.6;;;;;;;17.86;34.78711;942.709;;;;
2019/04/18 06:57:49;;;;;;;11.4;3.2;;;;;;;19.71;32.35547;942.6392;;;;
2019/04/18 07:00:12;;;;;;;6.4;2.8;;;;;;;19.2;33.49414;942.6197;;;;
2019/04/18 07:02:40;;;;;;;4.8;2.8;;;;;;;17.98;34.86523;942.541;;;;
2019/04/18 07:05:15;;;;;;;6.1;2.9;;;;;;;17.94;35.29297;942.6308;;;;
2019/04/18 07:07:50;;;;;;;6.5;3.2;;;;;;;18.62;32.16016;942.577;;;;
2019/04/18 07:12:43;;;;;;;6.6;3.4;;;;;;;19.19;31.39746;942.4617;;;;
2019/04/18 07:15:22;;;;;;;7;3.5;;;;;;;19.75;31.92773;942.4614;;;;
2019/04/18 07:18:07;;;;;;;5;3;;;;;;;17.97;34.57422;942.4725;;;;
2019/04/18 07:20:39;;;;;;;6;2.7;;;;;;;17.76;33.38477;942.4804;;;;
2019/04/18 07:23:06;;;;;;;5.2;2.6;;;;;;;19.56;31.26074;942.4213;;;;
2019/04/18 07:25:35;;;;;;;5.2;3;;;;;;;20.29;28.40527;942.4208;;;;
2019/04/18 07:28:20;;;;;;;4.8;2.8;;;;;;;20.29;28.26465;942.4208;;;;
2019/04/18 07:30:45;;;;;;;5;2.7;;;;;;;20.11;29.01172;942.5084;;;;
2019/04/18 07:33:10;;;;;;;10.2;3.3;;;;;;;19.82;29.47168;942.4661;;;;
2019/04/18 07:35:35;;;;;;;6.9;2.8;;;;;;;19.33;30.83691;942.4142;;;;
2019/04/18 07:38:04;;;;;;;4.8;2.8;;;;;;;20.78;29.18457;942.4626;;;;
2019/04/18 07:40:31;;;;;;;9.4;2.6;;;;;;;21.21;27.64551;942.4673;;;;
2019/04/18 07:43:03;;;;;;;4.5;2.7;;;;;;;22.09;27.34863;942.4257;;;;
2019/04/18 07:45:30;;;;;;;3.8;2.6;;;;;;;22.78;25.36035;942.3111;;;;
2019/04/18 07:47:56;;;;;;;8.5;2.6;;;;;;;23.31;27.89453;942.3862;;;;
2019/04/18 07:50:25;;;;;;;9.4;2.7;;;;;;;24.72;23.76074;942.3828;;;;
2019/04/18 07:53:04;;;;;;;14.1;2.7;;;;;;;25.86;21.1377;942.3606;;;;
2019/04/18 07:55:39;;;;;;;4.1;2.3;;;;;;;25.53;21.86621;942.3826;;;;
2019/04/18 07:57:58;;;;;;;6.3;2.3;;;;;;;25.95;20.18457;942.3678;;;;
2019/04/18 08:00:31;;;;;;;6.3;2.4;;;;;;;25.93;19.54492;942.4196;;;;
2019/04/18 08:02:54;;;;;;;8;2.2;;;;;;;25.88;20.03906;942.3781;;;;
2019/04/18 08:05:24;;;;;;;5.4;2.3;;;;;;;27.04;18.76367;942.3784;;;;
2019/04/18 08:08:03;;;;;;;2.2;1.9;;;;;;;26.74;19.07129;942.3973;;;;
2019/04/18 08:10:32;;;;;;;3.1;2.1;;;;;;;26.53;19.99707;942.3384;;;;
2019/04/18 08:13:01;;;;;;;5.3;2.3;;;;;;;27.92;22.51758;942.3994;;;;
2019/04/18 08:15:26;;;;;;;5.4;2.2;;;;;;;28.04;22.58301;942.4104;;;;
2019/04/18 08:17:52;;;;;;;4.9;2.5;;;;;;;26.65;23.76953;942.4063;;;;
2019/04/18 08:20:23;;;;;;;7.5;2.4;;;;;;;26.42;24.30176;942.476;;;;
2019/04/18 08:22:51;;;;;;;4.6;2.6;;;;;;;26.19;25.38867;942.4369;;;;
2019/04/18 08:25:20;;;;;;;6.7;2.7;;;;;;;25.43;26.8457;942.4324;;;;
2019/04/18 08:27:49;;;;;;;4.1;2.6;;;;;;;26.33;24.92285;942.4333;;;;
2019/04/18 08:30:14;;;;;;;3.8;2.4;;;;;;;25.55;24.91504;942.4576;;;;
2019/04/18 08:32:44;;;;;;;7.4;2.5;;;;;;;27.58;22.54785;942.3951;;;;
2019/04/18 08:35:15;;;;;;;7.3;2.8;;;;;;;26.88;23.76855;942.4509;;;;
2019/04/18 08:37:37;;;;;;;6.7;3;;;;;;;27.26;23.68262;942.4529;;;;
2019/04/18 08:40:25;;;;;;;5.2;2.7;;;;;;;27.22;23.20605;942.3984;;;;
2019/04/18 08:44:56;;;;;;;4.7;2.6;;;;;;;26.22;24.66895;942.3879;;;;
2019/04/18 08:47:16;;;;;;;6.4;2.6;;;;;;;26.86;23.60254;942.3578;;;;
2019/04/18 08:49:48;;;;;;;6.2;2.6;;;;;;;25.57;24.95215;942.3326;;;;
2019/04/18 08:52:23;;;;;;;4.1;2.6;;;;;;;25.78;24.65625;942.2935;;;;
2019/04/18 08:54:52;;;;;;;5.4;2.5;;;;;;;27.2;23.60742;942.2881;;;;
2019/04/18 08:57:14;;;;;;;3.2;2.5;;;;;;;28.25;21.20313;942.272;;;;
2019/04/18 08:59:39;;;;;;;3.9;2.6;;;;;;;29.18;20.96094;942.2798;;;;
2019/04/18 09:02:02;;;;;;;4.3;2.5;;;;;;;27.46;23.8584;942.2048;;;;
2019/04/18 09:04:27;;;;;;;4.4;2.4;;;;;;;25.87;25.91406;942.3021;;;;
2019/04/18 09:07:00;;;;;;;4.5;2.4;;;;;;;27.19;23.13379;942.2278;;;;
2019/04/18 09:09:28;;;;;;;5.2;2.6;;;;;;;26.57;24.3916;942.2672;;;;
2019/04/18 09:11:53;;;;;;;4.9;2.3;;;;;;;28.12;21.88672;942.1834;;;;
2019/04/18 09:14:18;;;;;;;3.1;2.5;;;;;;;28.05;22.12012;942.2336;;;;
2019/04/18 09:16:46;;;;;;;6.9;2.4;;;;;;;27.79;21.88281;942.235;;;;
2019/04/18 09:19:13;;;;;;;4.9;2.7;;;;;;;25.97;25.1748;942.2258;;;;
2019/04/18 09:21:45;;;;;;;3.7;2.6;;;;;;;27.07;22.47461;942.1906;;;;
2019/04/18 09:24:08;;;;;;;3;2.2;;;;;;;25.51;26.12988;942.2595;;;;
2019/04/18 09:26:33;;;;;;;5.1;2.7;;;;;;;25.31;25.49219;942.2495;;;;
2019/04/18 09:29:12;;;;;;;3.9;2.8;;;;;;;26.04;24.11523;942.272;;;;
2019/04/18 09:31:55;;;;;;;4.3;2.5;;;;;;;26.44;23.31934;942.2034;;;;
2019/04/18 09:34:23;;;;;;;6.4;2.8;;;;;;;26.56;23.43262;942.2109;;;;
2019/04/18 09:37:00;;;;;;;5.8;2.7;;;;;;;26.12;24.59277;942.2031;;;;
2019/04/18 09:39:29;;;;;;;6.9;2.8;;;;;;;25.76;25.60059;942.2185;;;;
2019/04/18 09:41:54;;;;;;;4.1;2.8;;;;;;;25.45;25.68945;942.3158;;;;
2019/04/18 09:44:34;;;;;;;4.8;2.8;;;;;;;25.48;25.8916;942.1898;;;;
2019/04/18 09:47:02;;;;;;;5.2;2.7;;;;;;;25.96;24.52441;942.2139;;;;
2019/04/18 09:49:39;;;;;;;4.6;2.8;;;;;;;26.6;24.26367;942.1959;;;;
2019/04/18 09:52:15;;;;;;;6.8;3.2;;;;;;;26.49;25.13379;942.0789;;;;
2019/04/18 09:54:59;;;;;;;7.2;2.9;;;;;;;25.37;27.03125;942.1061;;;;
2019/04/18 09:57:42;;;;;;;8;3.3;;;;;;;23.86;29.3877;942.1929;;;;
2019/04/18 10:00:14;;;;;;;5.7;3.4;;;;;;;24.27;29.29688;942.1995;;;;
2019/04/18 10:03:00;;;;;;;5.4;2.9;;;;;;;25.1;26.58984;942.1884;;;;
2019/04/18 10:05:39;;;;;;;4.6;3;;;;;;;24.9;27.85254;942.0957;;;;
2019/04/18 10:08:04;;;;;;;4.3;3;;;;;;;24.9;28.21777;942.192;;;;
2019/04/18 10:10:32;;;;;;;6.1;3.1;;;;;;;25.24;26.01953;942.1736;;;;
2019/04/18 10:13:12;;;;;;;5.5;2.8;;;;;;;25.63;25.74707;942.1764;;;;
2019/04/18 10:15:38;;;;;;;6;2.9;;;;;;;26.13;24.97168;942.1195;;;;
2019/04/18 10:18:04;;;;;;;6.1;3.1;;;;;;;25.41;26.96289;942.0602;;;;
2019/04/18 10:20:36;;;;;;;5.6;3.2;;;;;;;25.19;28.53125;942.1017;;;;
2019/04/18 10:23:01;;;;;;;6;3.2;;;;;;;23.77;29.19336;942.0795;;;;
2019/04/18 10:25:30;;;;;;;7.3;3.4;;;;;;;24.39;29.6709;942.0962;;;;
2019/04/18 10:27:51;;;;;;;5.6;3.1;;;;;;;24.34;28.42969;942.0637;;;;
2019/04/18 10:30:38;;;;;;;4;3;;;;;;;24.46;26.96387;942.0995;;;;
2019/04/18 10:32:41;;;;;;;5.4;3.1;;;;;;;24.49;28.3457;942.0731;;;;
2019/04/18 10:35:08;;;;;;;5.8;3;;;;;;;25.3;27.14453;942.1033;;;;
2019/04/18 10:37:35;;;;;;;5.1;2.9;;;;;;;25.62;26.82129;942.0779;;;;
2019/04/18 10:40:00;;;;;;;3.7;3.1;;;;;;;25.7;25.88086;942.0308;;;;
2019/04/18 10:42:27;;;;;;;4.2;3;;;;;;;26.7;25.09766;942.0383;;;;
2019/04/18 10:44:52;;;;;;;4.8;2.8;;;;;;;26.02;26.06543;941.9918;;;;
2019/04/18 10:47:17;;;;;;;7.7;3.2;;;;;;;25.26;27.66211;942.0477;;;;
2019/04/18 10:49:43;;;;;;;4.3;3.1;;;;;;;25.6;25.48535;942.0411;;;;
2019/04/18 10:52:08;;;;;;;6.5;3.3;;;;;;;25.81;26.34863;942.1191;;;;
2019/04/18 10:54:35;;;;;;;5.9;3.2;;;;;;;25.85;25.53418;942.0575;;;;
2019/04/18 10:57:00;;;;;;;6.5;3.5;;;;;;;26.62;24.51367;942.0316;;;;
2019/04/18 10:59:40;;;;;;;7.2;3.7;;;;;;;26.59;24.61816;941.9891;;;;
2019/04/18 11:02:26;;;;;;;6.5;3.5;;;;;;;26.96;24.41309;942.0156;;;;
2019/04/18 11:04:51;;;;;;;6.4;3.4;;;;;;;26.32;26.31934;941.9641;;;;
2019/04/18 11:07:17;;;;;;;7.9;3.4;;;;;;;26.54;25.00586;941.9922;;;;
2019/04/18 11:09:42;;;;;;;7.6;3.3;;;;;;;27.14;22.95313;941.8738;;;;
2019/04/18 11:12:07;;;;;;;4.2;3.5;;;;;;;25.67;26.35156;941.9056;;;;
2019/04/18 11:14:33;;;;;;;7;3.5;;;;;;;26.11;26.95801;941.8658;;;;
2019/04/18 11:17:09;;;;;;;9.5;3.3;;;;;;;26.7;26.7207;941.8592;;;;
2019/04/18 11:19:34;;;;;;;7;3.2;;;;;;;27.42;24.60449;941.7656;;;;
2019/04/18 11:22:00;;;;;;;6.1;3.3;;;;;;;28.22;22.21191;941.8923;;;;
2019/04/18 11:24:25;;;;;;;27;4.1;;;;;;;27.49;24.2168;941.8375;;;;
2019/04/18 11:26:51;;;;;;;6.2;3.4;;;;;;;26.87;25.65234;941.8506;;;;
2019/04/18 11:29:17;;;;;;;7.2;3.5;;;;;;;26.81;25.34082;941.8416;;;;
2019/04/18 11:31:42;;;;;;;6.6;3.4;;;;;;;27.2;25.36328;941.825;;;;
2019/04/18 11:34:11;;;;;;;7.7;3.7;;;;;;;26.66;26.2207;941.7083;;;;
2019/04/18 11:36:36;;;;;;;8.5;3.5;;;;;;;26.67;24.37402;941.7594;;;;
2019/04/18 11:39:06;;;;;;;7.7;3.4;;;;;;;28.73;22.81934;941.7897;;;;
2019/04/18 11:41:33;;;;;;;4.9;3.1;;;;;;;30.21;20.6748;941.7647;;;;
2019/04/18 11:44:06;;;;;;;5.3;3.2;;;;;;;31.61;18.67871;941.7243;;;;
2019/04/18 11:46:31;;;;;;;8;3.3;;;;;;;32.82;17.81641;941.7053;;;;
2019/04/18 11:48:56;;;;;;;4.6;3;;;;;;;32.51;18.5;941.7067;;;;
2019/04/18 11:51:22;;;;;;;5.6;3.2;;;;;;;31.95;18.10645;941.6292;;;;
2019/04/18 11:53:47;;;;;;;9.4;3;;;;;;;32.17;17.81543;941.6918;;;;
2019/04/18 11:56:12;;;;;;;7.9;3.7;;;;;;;30.63;20.37109;941.7244;;;;
2019/04/18 11:58:37;;;;;;;7;3.4;;;;;;;31.32;19.4209;941.726;;;;
2019/04/18 12:01:12;;;;;;;4.9;3.1;;;;;;;32.07;18.8418;941.6923;;;;
2019/04/18 12:03:42;;;;;;;5.8;3.1;;;;;;;30.82;20.12891;941.6355;;;;
2019/04/18 12:05:59;;;;;;;8.7;3;;;;;;;31.8;19.62109;941.6347;;;;
2019/04/18 12:08:35;;;;;;;7.5;3.5;;;;;;;31.08;20.66602;941.6492;;;;
2019/04/18 12:11:11;;;;;;;6.2;3.2;;;;;;;31.89;18.52246;941.5345;;;;
2019/04/18 12:13:36;;;;;;;5;3.3;;;;;;;31.74;18.82813;941.6099;;;;
2019/04/18 12:16:04;;;;;;;5.4;3.3;;;;;;;29.87;21.51758;941.5947;;;;
2019/04/18 12:18:29;;;;;;;4.5;3.4;;;;;;;29.91;20.37402;941.6317;;;;
2019/04/18 12:20:57;;;;;;;4;2.8;;;;;;;32;18.67188;941.6027;;;;
2019/04/18 12:23:24;;;;;;;4.3;3;;;;;;;33.21;16.43848;941.6339;;;;
2019/04/18 12:25:52;;;;;;;7.8;3;;;;;;;30.54;20.04492;941.5386;;;;
2019/04/18 12:28:27;;;;;;;6.7;3.2;;;;;;;29.79;20.02344;941.5625;;;;
2019/04/18 12:30:52;;;;;;;5.3;3;;;;;;;29.02;21.96582;941.5276;;;;
2019/04/18 12:33:35;;;;;;;6;3.1;;;;;;;28.12;22.55176;941.4929;;;;
2019/04/18 12:36:14;;;;;;;6.9;3.8;;;;;;;27.5;24.34766;941.5;;;;
2019/04/18 12:38:39;;;;;;;4.2;3.3;;;;;;;26.85;24.5498;941.492;;;;
2019/04/18 12:41:04;;;;;;;3.8;3.3;;;;;;;27.73;22.9707;941.5245;;;;
2019/04/18 12:43:29;;;;;;;4.9;3.2;;;;;;;26.74;24.81641;941.5214;;;;
2019/04/18 12:45:54;;;;;;;4.4;3.5;;;;;;;27.37;22.08691;941.4718;;;;
2019/04/18 12:48:32;;;;;;;4.3;3.2;;;;;;;26.83;23.60059;941.4592;;;;
2019/04/18 12:50:58;;;;;;;6.6;3.2;;;;;;;26.21;23.85254;941.5098;;;;
2019/04/18 12:53:29;;;;;;;4.2;3.4;;;;;;;25.42;27.9668;941.4639;;;;
2019/04/18 12:56:02;;;;;;;6.2;3.4;;;;;;;24.9;28.39453;941.4059;;;;
2019/04/18 12:58:27;;;;;;;5.2;3.2;;;;;;;25.23;25.72461;941.5616;;;;
2019/04/18 13:00:54;;;;;;;5.3;3.6;;;;;;;25.96;24.54785;941.3964;;;;
2019/04/18 13:03:35;;;;;;;9.2;3.6;;;;;;;25.7;25.70313;941.4355;;;;
2019/04/18 13:06:10;;;;;;;4.6;3.4;;;;;;;25.42;24.71973;941.5111;;;;
2019/04/18 13:08:50;;;;;;;5.9;3.3;;;;;;;24.53;26.39063;941.5153;;;;
2019/04/18 13:11:20;;;;;;;5;3.5;;;;;;;23.53;27.75488;941.402;;;;
2019/04/18 13:13:58;;;;;;;6.4;3.8;;;;;;;23.37;28.15625;941.4283;;;;
2019/04/18 13:16:10;;;;;;;7.2;3.7;;;;;;;23.41;27.12402;941.5491;;;;
2019/04/18 13:18:29;;;;;;;6.1;3.6;;;;;;;23.44;28.54883;941.4839;;;;
2019/04/18 13:20:54;;;;;;;5.6;3.9;;;;;;;23.38;27.22852;941.4782;;;;
2019/04/18 13:23:19;;;;;;;6.7;3.8;;;;;;;23.82;27.82031;941.5383;;;;
2019/04/18 13:25:44;;;;;;;9;3.7;;;;;;;24.2;26.90137;941.485;;;;
2019/04/18 13:28:09;;;;;;;5.8;4.1;;;;;;;24.48;27.89648;941.4539;;;;
2019/04/18 13:30:34;;;;;;;4.8;3.4;;;;;;;24.53;26.98047;941.5022;;;;
2019/04/18 13:32:59;;;;;;;4.9;3.4;;;;;;;24.72;26.69727;941.3833;;;;
2019/04/18 13:35:24;;;;;;;4.6;3.5;;;;;;;25.02;26.66797;941.4;;;;
2019/04/18 13:37:49;;;;;;;5.8;3.6;;;;;;;25.63;24.97949;941.4143;;;;
2019/04/18 13:40:16;;;;;;;7.6;3.6;;;;;;;25.61;26.64453;941.4486;;;;
2019/04/18 13:42:41;;;;;;;7.7;4.3;;;;;;;24.43;28.02344;941.4515;;;;
2019/04/18 13:45:07;;;;;;;7.5;4;;;;;;;23.32;30.32813;941.4619;;;;
2019/04/18 13:47:34;;;;;;;7.5;4;;;;;;;22.73;30.78027;941.3831;;;;
2019/04/18 13:49:59;;;;;;;18.6;4.4;;;;;;;22.87;31.65918;941.4205;;;;
2019/04/18 13:52:29;;;;;;;7.4;4.2;;;;;;;22.9;32.10742;941.4033;;;;
2019/04/18 13:54:54;;;;;;;7;4.1;;;;;;;23.06;30.65137;941.367;;;;
2019/04/18 13:57:19;;;;;;;8.5;4.6;;;;;;;22.58;30.13672;941.4249;;;;
2019/04/18 13:59:44;;;;;;;8.6;4.7;;;;;;;21.94;32.56641;941.4295;;;;
2019/04/18 14:02:12;;;;;;;5.2;4.2;;;;;;;21.79;32.68457;941.4659;;;;
2019/04/18 14:04:35;;;;;;;8.7;5.2;;;;;;;21.9;29.9502;941.4517;;;;
2019/04/18 14:07:00;;;;;;;7.4;4.7;;;;;;;21.81;33.69336;941.4249;;;;
2019/04/18 14:09:25;;;;;;;10.6;4.8;;;;;;;21.79;32.53223;941.397;;;;
2019/04/18 14:11:50;;;;;;;10.2;4.7;;;;;;;21.54;32.85254;941.4604;;;;
2019/04/18 14:14:15;;;;;;;7;4.1;;;;;;;21.89;32.72656;941.5047;;;;
2019/04/18 14:16:41;;;;;;;5.7;4.2;;;;;;;22.39;30.89844;941.4328;;;;
2019/04/18 14:19:06;;;;;;;5.8;4.2;;;;;;;22.37;31.06152;941.5139;;;;
2019/04/18 14:21:32;;;;;;;7.4;4.5;;;;;;;22.37;30.74414;941.5189;;;;
2019/04/18 14:23:57;;;;;;;6.5;4.1;;;;;;;22.46;30.2334;941.5327;;;;
2019/04/18 14:26:26;;;;;;;8.9;4.6;;;;;;;22.85;28.4873;941.4875;;;;
2019/04/18 14:28:48;;;;;;;8.6;4.4;;;;;;;23.29;28.42188;941.4702;;;;
2019/04/18 14:31:13;;;;;;;6.6;4.1;;;;;;;23.35;27.66211;941.5345;;;;
2019/04/18 14:33:38;;;;;;;8.1;3.9;;;;;;;22.97;28.27148;941.4236;;;;
2019/04/18 14:36:03;;;;;;;6.5;3.7;;;;;;;22.67;29.55566;941.4944;;;;
2019/04/18 14:38:28;;;;;;;5.7;3.9;;;;;;;22.49;29.79004;941.4805;;;;
2019/04/18 14:40:53;;;;;;;6.7;4.2;;;;;;;21.78;29.25098;941.5367;;;;
2019/04/18 14:43:18;;;;;;;6.5;3.7;;;;;;;21.73;29.69238;941.522;;;;
2019/04/18 14:45:51;;;;;;;5.1;3.6;;;;;;;21.83;30.98828;941.5438;;;;
2019/04/18 14:48:20;;;;;;;7.3;4;;;;;;;21.95;29.0625;941.4794;;;;
2019/04/18 14:50:45;;;;;;;7.8;3.9;;;;;;;21.8;30.36426;941.5736;;;;
2019/04/18 14:53:11;;;;;;;5.9;3.8;;;;;;;21.77;30.59668;941.5817;;;;
2019/04/18 14:55:36;;;;;;;5;3.8;;;;;;;22.03;29.36133;941.5901;;;;
2019/04/18 14:58:05;;;;;;;5.9;3.6;;;;;;;21.84;29.16113;941.5248;;;;
2019/04/18 15:00:30;;;;;;;5.4;3.6;;;;;;;21.8;28.86523;941.5686;;;;
2019/04/18 15:02:55;;;;;;;6.3;3.8;;;;;;;21.77;29.22656;941.6156;;;;
2019/04/18 15:05:23;;;;;;;5.5;3.6;;;;;;;21.88;29.72656;941.5885;;;;
2019/04/18 15:07:46;;;;;;;5.7;3.2;;;;;;;21.93;29.54199;941.5992;;;;
2019/04/18 15:10:21;;;;;;;6.3;3.4;;;;;;;21.56;31.36719;941.5402;;;;